Time;durP1;ratioP1;P1;durP2;ratioP2;P2;SDS_P1;SDS_P2;PMS_P1;PMS_P2;Temp;Humidity;BMP_temperature;BMP_pressure;BME280_temperature;BME280_humidity;BME280_pressure;Samples;Min_cycle;Max_cycle;Signal;HPM_P1;HPM_P2
2022/07/25 00:00:55;;;;;;;0.80;0.80;;;22.10;99.90;;;;;;5064790;28;20305;-80
2022/07/25 00:03:20;;;;;;;0.90;0.90;;;22.10;99.90;;;;;;5070888;28;20173;-80
2022/07/25 00:05:46;;;;;;;2.00;1.63;;;22.10;99.90;;;;;;5061261;28;20196;-80
2022/07/25 00:08:11;;;;;;;0.87;0.63;;;22.20;99.90;;;;;;5064567;28;20256;-79
2022/07/25 00:10:37;;;;;;;1.17;0.97;;;22.20;99.90;;;;;;5067117;28;20211;-80
2022/07/25 00:13:03;;;;;;;0.83;0.83;;;22.30;99.90;;;;;;5068434;28;20182;-81
2022/07/25 00:15:28;;;;;;;0.90;0.90;;;22.50;99.90;;;;;;5066740;28;20180;-79
2022/07/25 00:17:54;;;;;;;1.53;1.10;;;22.50;99.90;;;;;;5058116;28;20209;-80
2022/07/25 00:20:19;;;;;;;0.80;0.60;;;22.60;99.90;;;;;;5068427;28;20649;-80
2022/07/25 00:22:45;;;;;;;2.20;1.77;;;22.70;99.90;;;;;;5069766;28;20648;-79
2022/07/25 00:25:10;;;;;;;1.23;1.13;;;22.70;99.90;;;;;;5068773;28;20185;-80
2022/07/25 00:27:36;;;;;;;1.23;0.70;;;22.80;99.90;;;;;;5079200;28;20170;-79
2022/07/25 00:30:02;;;;;;;2.23;1.33;;;22.80;99.90;;;;;;5058384;28;20227;-80
2022/07/25 00:32:28;;;;;;;1.07;0.90;;;22.80;99.90;;;;;;5067173;28;20207;-80
2022/07/25 00:34:53;;;;;;;1.60;1.50;;;22.50;99.90;;;;;;5060928;28;20221;-80
2022/07/25 00:37:19;;;;;;;0.73;0.73;;;22.30;99.90;;;;;;5064354;28;20169;-80
2022/07/25 00:39:44;;;;;;;0.70;0.70;;;22.20;99.90;;;;;;5069385;28;20228;-80
2022/07/25 00:42:10;;;;;;;1.13;1.00;;;22.00;99.90;;;;;;5060226;28;20191;-80
2022/07/25 00:44:35;;;;;;;1.37;0.70;;;22.20;99.90;;;;;;5065342;28;20181;-80
2022/07/25 00:47:01;;;;;;;0.60;0.60;;;22.10;99.90;;;;;;5062826;28;20174;-79
2022/07/25 00:49:27;;;;;;;0.70;0.70;;;22.00;99.90;;;;;;5070362;28;20736;-79
2022/07/25 00:51:53;;;;;;;1.33;1.13;;;22.00;99.90;;;;;;5057094;28;20222;-79
2022/07/25 00:54:20;;;;;;;0.93;0.93;;;22.00;99.90;;;;;;5064753;28;20330;-80
2022/07/25 00:56:46;;;;;;;1.93;1.03;;;21.90;99.90;;;;;;5075884;28;20711;-80
2022/07/25 00:59:11;;;;;;;0.60;0.60;;;21.80;99.90;;;;;;5070707;28;20201;-80
2022/07/25 01:01:38;;;;;;;0.90;0.73;;;21.70;99.90;;;;;;5059861;28;20172;-80
2022/07/25 01:04:04;;;;;;;1.67;0.80;;;21.50;99.90;;;;;;5063605;28;20658;-80
2022/07/25 01:06:31;;;;;;;1.53;1.03;;;21.40;99.90;;;;;;5070520;28;20181;-79
2022/07/25 01:08:57;;;;;;;0.80;0.80;;;21.40;99.90;;;;;;5059974;28;20169;-80
2022/07/25 01:11:23;;;;;;;1.23;0.87;;;21.30;99.90;;;;;;5062093;28;20173;-80
2022/07/25 01:13:49;;;;;;;0.90;0.70;;;21.50;99.90;;;;;;5066501;28;20181;-80
2022/07/25 01:16:14;;;;;;;0.40;0.40;;;21.70;99.90;;;;;;5063375;28;20665;-80
2022/07/25 01:18:40;;;;;;;1.00;0.90;;;21.70;99.90;;;;;;5067152;28;20215;-80
2022/07/25 01:21:06;;;;;;;0.90;0.90;;;21.70;99.90;;;;;;5063116;28;20229;-79
2022/07/25 01:23:32;;;;;;;1.77;1.00;;;21.70;99.90;;;;;;5064463;28;20743;-79
2022/07/25 01:25:57;;;;;;;0.50;0.50;;;21.80;99.90;;;;;;5061135;28;20180;-80
2022/07/25 01:28:23;;;;;;;1.90;0.93;;;21.90;99.90;;;;;;5068014;28;20272;-79
2022/07/25 01:30:49;;;;;;;1.73;1.10;;;21.80;99.90;;;;;;5065731;28;20200;-79
2022/07/25 01:33:19;;;;;;;0.67;0.67;;;21.60;99.90;;;;;;5066368;28;20192;-79
2022/07/25 01:35:45;;;;;;;0.77;0.67;;;21.40;99.90;;;;;;5064700;28;20192;-80
2022/07/25 01:38:12;;;;;;;0.70;0.70;;;21.40;99.90;;;;;;5064402;28;22192;-80
2022/07/25 01:40:38;;;;;;;0.63;0.63;;;21.30;99.90;;;;;;5067170;28;20204;-79
2022/07/25 01:43:04;;;;;;;0.73;0.73;;;21.30;99.90;;;;;;5064866;28;20170;-80
2022/07/25 01:45:30;;;;;;;0.77;0.77;;;21.40;99.90;;;;;;5061134;28;20198;-79
2022/07/25 01:47:55;;;;;;;1.00;1.00;;;21.40;99.90;;;;;;5063622;28;20178;-79
2022/07/25 01:50:21;;;;;;;0.63;0.63;;;21.40;99.90;;;;;;5066281;28;20209;-79
2022/07/25 01:52:47;;;;;;;0.73;0.60;;;21.40;99.90;;;;;;5059522;28;20185;-80
2022/07/25 01:55:13;;;;;;;1.33;1.23;;;21.60;99.90;;;;;;5062289;28;20193;-79
2022/07/25 01:57:39;;;;;;;0.53;0.53;;;21.50;99.90;;;;;;5060995;28;20181;-79
2022/07/25 02:00:08;;;;;;;1.77;1.10;;;21.30;99.90;;;;;;5058331;28;20206;-79
2022/07/25 02:02:33;;;;;;;1.20;0.90;;;21.20;99.90;;;;;;5055744;28;20197;-80
2022/07/25 02:04:59;;;;;;;0.50;0.50;;;21.20;99.90;;;;;;5061914;28;20178;-80
2022/07/25 02:07:24;;;;;;;0.77;0.77;;;21.20;99.90;;;;;;5057772;28;20896;-80
2022/07/25 02:09:50;;;;;;;0.80;0.70;;;21.20;99.90;;;;;;5057866;28;20224;-80
2022/07/25 02:12:16;;;;;;;1.50;0.90;;;21.20;99.90;;;;;;5062185;28;20217;-79
2022/07/25 02:14:41;;;;;;;1.40;1.33;;;21.10;99.90;;;;;;5059443;28;20193;-79
2022/07/25 02:17:07;;;;;;;0.70;0.70;;;21.10;99.90;;;;;;5068435;28;20216;-79
2022/07/25 02:19:33;;;;;;;1.00;1.00;;;21.10;99.90;;;;;;5057926;28;20209;-80
2022/07/25 02:21:59;;;;;;;1.60;0.83;;;21.00;99.90;;;;;;5068441;28;20180;-79
2022/07/25 02:24:24;;;;;;;0.60;0.60;;;21.00;99.90;;;;;;5064875;28;20677;-79
2022/07/25 02:26:50;;;;;;;0.63;0.63;;;21.00;99.90;;;;;;5059562;28;20181;-80
2022/07/25 02:29:16;;;;;;;0.50;0.50;;;21.10;99.90;;;;;;5062973;28;20232;-80
2022/07/25 02:31:41;;;;;;;0.53;0.53;;;21.10;99.90;;;;;;5069341;28;20188;-79
2022/07/25 02:34:07;;;;;;;1.93;0.90;;;21.20;99.90;;;;;;5068553;28;20181;-80
2022/07/25 02:36:32;;;;;;;1.00;0.80;;;21.30;99.90;;;;;;5073726;28;20212;-80
2022/07/25 02:38:58;;;;;;;0.37;0.37;;;21.40;99.90;;;;;;5073756;28;20197;-80
2022/07/25 02:41:23;;;;;;;0.53;0.53;;;21.50;99.90;;;;;;5068015;28;20250;-80
2022/07/25 02:43:49;;;;;;;0.83;0.83;;;21.60;99.90;;;;;;5074147;28;20865;-80
2022/07/25 02:46:15;;;;;;;1.20;1.20;;;21.70;99.90;;;;;;5074050;28;20176;-79
2022/07/25 02:48:40;;;;;;;0.80;0.80;;;21.70;99.90;;;;;;5072406;28;20197;-80
2022/07/25 02:51:06;;;;;;;0.90;0.90;;;21.70;99.90;;;;;;5065317;28;20250;-80
2022/07/25 02:53:32;;;;;;;0.77;0.77;;;21.70;99.90;;;;;;5088471;28;20642;-80
2022/07/25 02:55:57;;;;;;;1.07;0.73;;;21.80;99.90;;;;;;5070247;28;20607;-80
2022/07/25 02:58:23;;;;;;;1.37;0.83;;;21.80;99.90;;;;;;5071150;28;20234;-80
2022/07/25 03:00:48;;;;;;;1.23;0.80;;;21.80;99.90;;;;;;5065818;28;20200;-80
2022/07/25 03:03:14;;;;;;;2.70;1.13;;;21.80;99.90;;;;;;5071680;28;20189;-80
2022/07/25 03:05:39;;;;;;;0.87;0.73;;;21.80;99.90;;;;;;5068514;28;20532;-79
2022/07/25 03:08:05;;;;;;;0.43;0.43;;;21.80;99.90;;;;;;5067960;28;20682;-80
2022/07/25 03:10:30;;;;;;;0.53;0.53;;;21.80;99.90;;;;;;5071466;28;20213;-80
2022/07/25 03:12:56;;;;;;;0.77;0.77;;;21.80;99.90;;;;;;5068134;28;20232;-80
2022/07/25 03:15:21;;;;;;;1.80;0.97;;;21.80;99.90;;;;;;5061822;28;20185;-79
2022/07/25 03:17:47;;;;;;;1.80;1.13;;;21.70;99.90;;;;;;5066470;28;20234;-80
2022/07/25 03:20:12;;;;;;;1.73;1.00;;;21.70;99.90;;;;;;5064306;28;20296;-80
2022/07/25 03:22:38;;;;;;;0.73;0.73;;;21.70;99.90;;;;;;5064203;28;20200;-80
2022/07/25 03:25:04;;;;;;;1.70;1.33;;;21.70;99.90;;;;;;5063645;28;20188;-80
2022/07/25 03:27:30;;;;;;;1.00;1.00;;;21.50;99.90;;;;;;5070419;28;20235;-79
2022/07/25 03:29:55;;;;;;;1.30;0.83;;;21.10;99.90;;;;;;5068734;28;20202;-79
2022/07/25 03:32:22;;;;;;;0.80;0.80;;;21.10;99.90;;;;;;5067646;28;20180;-80
2022/07/25 03:34:47;;;;;;;0.83;0.53;;;21.20;99.90;;;;;;5065414;28;20184;-80
2022/07/25 03:37:13;;;;;;;0.83;0.83;;;21.20;99.90;;;;;;5069626;28;20177;-80
2022/07/25 03:39:38;;;;;;;1.07;0.83;;;21.30;99.90;;;;;;5069107;28;20583;-80
2022/07/25 03:42:04;;;;;;;0.97;0.90;;;21.30;99.90;;;;;;5066930;28;20461;-80
2022/07/25 03:44:30;;;;;;;1.00;1.00;;;21.40;99.90;;;;;;5064139;28;20178;-81
2022/07/25 03:46:55;;;;;;;0.97;0.97;;;21.50;99.90;;;;;;5066071;28;20181;-80
2022/07/25 03:49:21;;;;;;;0.70;0.70;;;21.50;99.90;;;;;;5070138;28;20224;-80
2022/07/25 03:51:46;;;;;;;5.70;1.10;;;21.60;99.90;;;;;;5070948;28;20193;-80
2022/07/25 03:54:14;;;;;;;1.03;0.93;;;21.60;99.90;;;;;;5069822;28;20558;-81
2022/07/25 03:56:43;;;;;;;0.87;0.87;;;21.60;99.90;;;;;;5081525;28;20234;-80
2022/07/25 03:59:10;;;;;;;0.90;0.50;;;21.70;99.90;;;;;;5065947;28;20218;-80
2022/07/25 04:01:35;;;;;;;0.87;0.87;;;21.70;99.90;;;;;;5071588;28;20719;-80
2022/07/25 04:04:02;;;;;;;0.67;0.67;;;21.90;99.90;;;;;;5072119;28;20174;-80
2022/07/25 04:06:27;;;;;;;0.60;0.60;;;22.10;99.90;;;;;;5073005;28;20192;-80
2022/07/25 04:08:55;;;;;;;0.93;0.80;;;22.20;99.90;;;;;;5084857;28;20193;-80
2022/07/25 04:11:21;;;;;;;0.60;0.60;;;22.60;99.90;;;;;;5088588;28;20723;-79
2022/07/25 04:13:46;;;;;;;0.87;0.77;;;23.30;99.90;;;;;;5068929;28;20177;-80
2022/07/25 04:16:12;;;;;;;0.60;0.60;;;24.10;99.90;;;;;;5076594;28;20177;-80
2022/07/25 04:18:38;;;;;;;1.23;1.00;;;24.50;99.90;;;;;;5061150;28;20949;-80
2022/07/25 04:21:04;;;;;;;0.73;0.63;;;24.60;99.90;;;;;;5071244;28;20204;-79
2022/07/25 04:23:30;;;;;;;0.70;0.70;;;24.50;99.90;;;;;;5072060;28;20181;-79
2022/07/25 04:25:56;;;;;;;0.70;0.70;;;24.30;99.90;;;;;;5069025;28;20175;-79
2022/07/25 04:28:23;;;;;;;1.33;1.23;;;24.20;99.90;;;;;;5064145;28;20639;-79
2022/07/25 04:30:49;;;;;;;1.20;1.03;;;24.00;99.90;;;;;;5069892;28;20666;-79
2022/07/25 04:33:15;;;;;;;0.90;0.90;;;23.80;99.90;;;;;;5069354;28;20196;-79
2022/07/25 04:35:40;;;;;;;1.27;0.80;;;23.70;99.90;;;;;;5066670;28;20209;-79
2022/07/25 04:38:06;;;;;;;1.90;0.63;;;23.60;99.90;;;;;;5063951;28;20306;-79
2022/07/25 04:40:32;;;;;;;1.37;1.27;;;23.50;99.90;;;;;;5070084;28;20201;-79
2022/07/25 04:42:57;;;;;;;0.63;0.60;;;23.50;99.90;;;;;;5070292;28;20181;-79
2022/07/25 04:45:23;;;;;;;1.03;0.83;;;23.30;99.90;;;;;;5066834;28;20212;-79
2022/07/25 04:47:49;;;;;;;4.67;1.00;;;23.30;99.90;;;;;;5068611;28;20182;-79
2022/07/25 04:50:14;;;;;;;0.80;0.57;;;23.20;99.90;;;;;;5070109;28;20224;-79
2022/07/25 04:52:40;;;;;;;0.80;0.80;;;23.20;99.90;;;;;;5071626;28;20294;-79
2022/07/25 04:55:06;;;;;;;0.77;0.77;;;23.20;99.90;;;;;;5066581;28;20520;-79
2022/07/25 04:57:31;;;;;;;1.20;1.10;;;23.10;99.90;;;;;;5067245;28;20212;-79
2022/07/25 04:59:57;;;;;;;1.00;0.90;;;23.00;99.90;;;;;;5080823;28;20240;-79
2022/07/25 05:02:23;;;;;;;0.50;0.50;;;22.90;99.90;;;;;;5069861;28;20646;-79
2022/07/25 05:04:49;;;;;;;0.80;0.80;;;22.90;99.90;;;;;;5066054;28;20173;-78
2022/07/25 05:07:15;;;;;;;1.40;1.00;;;22.90;99.90;;;;;;5066492;28;20227;-79
2022/07/25 05:09:41;;;;;;;0.73;0.73;;;22.90;99.90;;;;;;5066241;28;20209;-79
2022/07/25 05:12:06;;;;;;;2.87;2.67;;;22.90;99.90;;;;;;5083545;28;20196;-79
2022/07/25 05:14:32;;;;;;;1.00;0.97;;;22.90;99.90;;;;;;5062822;28;20177;-79
2022/07/25 05:16:57;;;;;;;1.60;1.13;;;22.90;99.90;;;;;;5068143;28;20197;-79
2022/07/25 05:19:23;;;;;;;1.00;0.80;;;22.90;99.90;;;;;;5066325;28;20220;-79
2022/07/25 05:21:48;;;;;;;1.47;1.37;;;22.90;99.90;;;;;;5065657;28;20184;-79
2022/07/25 05:24:14;;;;;;;1.53;1.10;;;22.90;99.90;;;;;;5069655;28;20686;-78
2022/07/25 05:26:39;;;;;;;1.53;1.23;;;22.90;99.90;;;;;;5066161;28;20749;-79
2022/07/25 05:29:05;;;;;;;1.77;1.00;;;22.90;99.90;;;;;;5066120;28;20581;-79
2022/07/25 05:31:30;;;;;;;1.10;1.00;;;22.90;99.90;;;;;;5067317;28;20208;-79
2022/07/25 05:33:56;;;;;;;1.13;1.03;;;22.80;99.90;;;;;;5066296;28;20292;-79
2022/07/25 05:36:22;;;;;;;1.07;1.00;;;22.80;99.90;;;;;;5072257;28;20200;-79
2022/07/25 05:38:47;;;;;;;0.80;0.80;;;22.80;99.90;;;;;;5070761;28;20197;-79
2022/07/25 05:41:13;;;;;;;0.83;0.70;;;22.90;99.90;;;;;;5069759;28;20228;-79
2022/07/25 05:43:38;;;;;;;1.70;0.90;;;22.90;99.90;;;;;;5067829;28;20173;-79
2022/07/25 05:46:04;;;;;;;0.70;0.70;;;23.00;99.90;;;;;;5068967;28;20576;-79
2022/07/25 05:48:30;;;;;;;1.13;1.00;;;23.20;99.90;;;;;;5066658;28;20212;-79
2022/07/25 05:50:58;;;;;;;1.27;0.90;;;23.20;99.90;;;;;;5067450;28;20367;-79
2022/07/25 05:53:24;;;;;;;1.77;1.20;;;23.20;99.90;;;;;;5069415;28;20177;-79
2022/07/25 05:55:49;;;;;;;1.20;0.97;;;23.20;99.90;;;;;;5066294;28;20221;-79
2022/07/25 05:58:15;;;;;;;1.47;1.17;;;23.10;99.90;;;;;;5066166;28;20274;-79
2022/07/25 06:00:40;;;;;;;1.43;1.30;;;23.10;99.90;;;;;;5068118;28;20204;-80
2022/07/25 06:03:06;;;;;;;1.63;1.10;;;23.20;99.90;;;;;;5065883;28;20737;-79
2022/07/25 06:05:31;;;;;;;1.07;1.07;;;23.30;99.90;;;;;;5066306;28;20184;-79
2022/07/25 06:07:57;;;;;;;1.10;0.73;;;23.40;99.90;;;;;;5069792;28;20193;-78
2022/07/25 06:10:22;;;;;;;0.77;0.77;;;23.60;99.90;;;;;;5075166;28;20222;-78
2022/07/25 06:12:48;;;;;;;1.47;1.00;;;23.70;99.90;;;;;;5074619;28;20998;-79
2022/07/25 06:15:14;;;;;;;1.53;1.23;;;23.80;99.90;;;;;;5090663;28;20169;-79
2022/07/25 06:17:39;;;;;;;0.90;0.90;;;24.00;99.90;;;;;;5073070;28;20185;-80
2022/07/25 06:20:05;;;;;;;1.40;1.13;;;24.10;99.90;;;;;;5075688;28;20219;-80
2022/07/25 06:22:30;;;;;;;1.03;0.70;;;24.30;99.90;;;;;;5076814;28;20185;-80
2022/07/25 06:24:56;;;;;;;2.27;1.20;;;24.40;99.90;;;;;;5067060;28;20537;-79
2022/07/25 06:27:22;;;;;;;1.47;1.07;;;24.50;99.90;;;;;;5076164;28;20545;-79
2022/07/25 06:29:47;;;;;;;1.20;1.10;;;24.70;99.90;;;;;;5069351;28;20224;-79
2022/07/25 06:32:13;;;;;;;0.97;0.90;;;24.90;99.90;;;;;;5071837;28;20184;-79
2022/07/25 06:34:38;;;;;;;1.20;1.07;;;25.00;99.90;;;;;;5071124;28;20181;-80
2022/07/25 06:37:04;;;;;;;1.80;1.50;;;25.10;99.90;;;;;;5078129;28;20593;-81
2022/07/25 06:39:29;;;;;;;0.93;0.77;;;25.20;99.90;;;;;;5073163;28;20205;-80
2022/07/25 06:41:57;;;;;;;1.10;1.10;;;25.30;99.90;;;;;;5088773;28;20234;-79
2022/07/25 06:44:22;;;;;;;1.27;1.13;;;25.40;99.90;;;;;;5068704;28;20174;-80
2022/07/25 06:46:48;;;;;;;1.43;0.73;;;25.50;99.90;;;;;;5061772;28;20169;-80
2022/07/25 06:49:13;;;;;;;1.10;1.10;;;25.70;99.90;;;;;;5075934;28;20666;-80
2022/07/25 06:51:39;;;;;;;1.37;1.17;;;25.70;99.90;;;;;;5068062;28;20205;-80
2022/07/25 06:54:04;;;;;;;1.03;0.93;;;25.90;99.90;;;;;;5077975;28;20234;-80
2022/07/25 06:56:31;;;;;;;1.10;1.00;;;26.00;99.90;;;;;;5078361;28;20707;-79
2022/07/25 06:58:57;;;;;;;0.50;0.50;;;26.10;99.90;;;;;;5069098;28;20244;-79
2022/07/25 07:01:23;;;;;;;1.20;1.10;;;26.20;99.90;;;;;;5069570;28;20173;-79
2022/07/25 07:03:48;;;;;;;0.77;0.77;;;26.30;99.90;;;;;;5074992;28;20189;-80
2022/07/25 07:06:14;;;;;;;2.77;1.80;;;26.30;99.90;;;;;;5070040;28;20698;-80
2022/07/25 07:08:39;;;;;;;1.67;1.33;;;26.50;99.90;;;;;;5064122;28;20177;-79
2022/07/25 07:11:06;;;;;;;1.53;1.23;;;26.60;99.90;;;;;;5073045;28;20206;-79
2022/07/25 07:13:32;;;;;;;1.77;0.90;;;26.70;99.90;;;;;;5072317;28;20176;-80
2022/07/25 07:15:58;;;;;;;1.07;1.00;;;26.80;99.90;;;;;;5074329;28;20249;-80
2022/07/25 07:18:24;;;;;;;1.07;1.07;;;26.90;99.90;;;;;;5075212;28;20244;-79
2022/07/25 07:20:50;;;;;;;0.73;0.70;;;27.00;99.90;;;;;;5078193;28;20200;-80
2022/07/25 07:23:16;;;;;;;2.50;1.37;;;26.90;99.90;;;;;;5065665;28;20177;-79
2022/07/25 07:25:41;;;;;;;1.40;1.30;;;27.10;99.90;;;;;;5070249;28;20188;-80
2022/07/25 07:28:07;;;;;;;1.38;1.00;;;27.30;99.90;;;;;;5065174;28;20189;-79
2022/07/25 07:30:33;;;;;;;0.88;0.88;;;27.50;99.90;;;;;;5072104;28;20201;-80
2022/07/25 07:32:59;;;;;;;1.00;1.00;;;27.70;99.90;;;;;;5067406;28;20759;-80
2022/07/25 07:35:24;;;;;;;2.73;1.37;;;27.80;99.90;;;;;;5068597;28;20358;-79
2022/07/25 07:37:53;;;;;;;1.50;1.40;;;27.90;99.90;;;;;;5075247;28;20892;-80
2022/07/25 07:40:19;;;;;;;2.05;1.13;;;28.00;99.90;;;;;;5062997;28;20271;-79
2022/07/25 07:42:47;;;;;;;1.60;1.45;;;28.00;99.90;;;;;;5074613;28;20219;-80
2022/07/25 07:45:21;;;;;;;1.45;1.35;;;28.00;99.90;;;;;;5067544;28;20253;-79
2022/07/25 07:47:48;;;;;;;1.13;1.02;;;28.00;99.90;;;;;;5066862;28;20293;-80
2022/07/25 07:50:15;;;;;;;1.10;1.00;;;28.20;99.90;;;;;;5066823;28;20220;-80
2022/07/25 07:52:41;;;;;;;1.13;1.05;;;28.40;99.90;;;;;;5068450;28;20185;-80
2022/07/25 07:57:52;;;;;;;1.08;0.95;;;28.80;99.90;;;;;;5071755;28;20209;-80
2022/07/25 08:00:19;;;;;;;4.00;1.52;;;29.10;99.90;;;;;;5074455;28;20673;-80
2022/07/25 08:02:50;;;;;;;1.27;1.05;;;28.90;99.90;;;;;;5075294;28;20177;-80
2022/07/25 08:05:21;;;;;;;2.08;1.13;;;28.90;99.90;;;;;;5068571;28;20181;-79
2022/07/25 08:07:50;;;;;;;1.15;1.05;;;29.10;99.90;;;;;;5075265;28;20189;-80
2022/07/25 08:10:21;;;;;;;1.85;1.10;;;29.30;99.90;;;;;;5068312;28;20204;-80
2022/07/25 08:12:47;;;;;;;1.58;1.48;;;29.40;99.90;;;;;;5064366;28;20649;-79
2022/07/25 08:15:13;;;;;;;1.33;1.23;;;29.50;99.90;;;;;;5068749;28;20177;-81
2022/07/25 08:17:38;;;;;;;0.80;0.80;;;29.60;99.90;;;;;;5071360;28;20550;-80
2022/07/25 08:20:08;;;;;;;2.08;1.30;;;29.70;99.90;;;;;;5072221;28;20300;-80
2022/07/25 08:22:38;;;;;;;1.42;1.33;;;29.70;99.90;;;;;;5071577;28;20183;-79
2022/07/25 08:25:05;;;;;;;2.00;1.10;;;29.80;99.90;;;;;;5069003;28;20180;-79
2022/07/25 08:27:31;;;;;;;5.38;2.10;;;29.90;99.90;;;;;;5069599;28;20184;-79
2022/07/25 08:29:59;;;;;;;1.38;1.27;;;30.00;99.90;;;;;;5066371;28;20209;-79
2022/07/25 08:32:24;;;;;;;0.98;0.95;;;30.10;99.90;;;;;;5069161;28;20188;-79
2022/07/25 08:34:50;;;;;;;1.25;1.17;;;30.20;99.90;;;;;;5071574;28;20184;-82
2022/07/25 08:37:16;;;;;;;2.25;1.85;;;30.30;99.90;;;;;;5071578;28;20183;-82
2022/07/25 08:39:42;;;;;;;1.90;1.15;;;30.00;99.90;;;;;;5069281;28;20231;-80
2022/07/25 08:42:07;;;;;;;1.20;1.10;;;30.20;99.90;;;;;;5065343;28;20196;-80
2022/07/25 08:44:36;;;;;;;1.30;1.20;;;30.40;99.90;;;;;;5083807;28;20181;-81
2022/07/25 08:47:02;;;;;;;2.38;1.48;;;29.90;99.90;;;;;;5069917;28;20208;-80
2022/07/25 08:49:28;;;;;;;1.10;0.98;;;30.50;99.90;;;;;;5066886;28;20216;-81
2022/07/25 08:51:55;;;;;;;1.30;1.10;;;30.80;99.90;;;;;;5072735;28;20181;-81
2022/07/25 08:54:23;;;;;;;0.98;0.98;;;31.10;99.90;;;;;;5069555;28;20177;-81
2022/07/25 08:56:49;;;;;;;1.35;1.30;;;31.40;99.90;;;;;;5063789;28;20188;-81
2022/07/25 08:59:14;;;;;;;1.67;1.58;;;31.60;99.90;;;;;;5067054;28;20197;-81
2022/07/25 09:01:40;;;;;;;2.55;2.35;;;31.70;99.90;;;;;;5071267;28;20220;-81
2022/07/25 09:04:08;;;;;;;1.40;1.30;;;31.90;99.90;;;;;;5068757;28;20173;-81
2022/07/25 09:06:33;;;;;;;2.05;1.95;;;32.10;99.90;;;;;;5066617;28;20268;-81
2022/07/25 09:09:00;;;;;;;1.63;1.52;;;31.80;99.90;;;;;;5083696;28;20272;-80
2022/07/25 09:11:33;;;;;;;2.42;1.90;;;31.40;99.90;;;;;;5069871;28;20190;-80
2022/07/25 09:14:05;;;;;;;2.67;1.85;;;31.60;99.90;;;;;;5066067;28;20178;-81
2022/07/25 09:16:32;;;;;;;2.58;2.38;;;31.90;99.90;;;;;;5070573;28;20181;-80
2022/07/25 09:19:10;;;;;;;2.85;1.13;;;32.30;99.90;;;;;;5067284;28;20203;-80
2022/07/25 09:21:36;;;;;;;2.15;1.98;;;32.30;99.90;;;;;;5069937;28;20181;-80
2022/07/25 09:24:15;;;;;;;1.67;1.35;;;32.40;99.90;;;;;;5068594;28;20211;-80
2022/07/25 09:26:47;;;;;;;3.60;1.40;;;32.50;99.90;;;;;;5064857;28;20181;-80
2022/07/25 09:29:25;;;;;;;1.75;1.58;;;32.70;99.90;;;;;;5067832;28;20186;-81
2022/07/25 09:31:53;;;;;;;1.88;1.75;;;33.10;99.90;;;;;;5069062;28;20416;-80
2022/07/25 09:34:39;;;;;;;1.45;1.20;;;33.50;99.90;;;;;;5069119;28;20709;-80
2022/07/25 09:37:07;;;;;;;3.33;2.13;;;33.70;99.90;;;;;;5086015;28;20192;-80
2022/07/25 09:39:47;;;;;;;1.77;1.67;;;33.60;99.90;;;;;;5068651;28;20235;-80
2022/07/25 09:42:18;;;;;;;1.70;1.05;;;33.40;99.90;;;;;;5064753;28;20180;-80
2022/07/25 09:44:59;;;;;;;2.00;1.80;;;33.70;99.90;;;;;;5083667;28;20188;-80
2022/07/25 09:47:25;;;;;;;2.80;1.55;;;33.60;99.90;;;;;;5063937;28;20331;-80
2022/07/25 09:49:51;;;;;;;3.22;2.25;;;33.70;99.90;;;;;;5068471;28;20283;-80
2022/07/25 09:52:17;;;;;;;1.67;1.55;;;34.20;99.90;;;;;;5067261;28;20204;-80
2022/07/25 09:54:43;;;;;;;1.13;0.90;;;34.30;99.90;;;;;;5066734;28;20184;-80
2022/07/25 09:57:09;;;;;;;2.08;1.88;;;34.50;99.90;;;;;;5060203;28;20184;-80
2022/07/25 09:59:35;;;;;;;1.55;1.38;;;34.80;99.90;;;;;;5082805;28;20258;-80
2022/07/25 10:02:25;;;;;;;1.50;1.38;;;34.60;99.90;;;;;;5071774;28;20549;-80
2022/07/25 10:05:09;;;;;;;1.83;1.50;;;34.70;99.90;;;;;;5063233;28;20647;-80
2022/07/25 10:07:40;;;;;;;3.15;2.38;;;34.40;99.90;;;;;;5063942;28;20672;-80
2022/07/25 10:10:06;;;;;;;1.65;1.55;;;34.20;99.90;;;;;;5071398;28;20244;-80
2022/07/25 10:12:31;;;;;;;1.38;1.23;;;34.30;99.90;;;;;;5065382;28;20181;-80
2022/07/25 10:15:23;;;;;;;1.15;1.15;;;34.60;99.90;;;;;;5065142;28;20196;-80
2022/07/25 10:18:00;;;;;;;1.30;1.20;;;34.70;99.90;;;;;;5057947;28;20677;-80
2022/07/25 10:20:27;;;;;;;2.50;2.05;;;34.90;99.90;;;;;;5069027;28;20338;-80
2022/07/25 10:22:52;;;;;;;1.73;1.63;;;34.90;99.90;;;;;;5063652;28;20237;-80
2022/07/25 10:25:19;;;;;;;1.25;1.15;;;34.90;99.90;;;;;;5063620;28;20252;-80
2022/07/25 10:27:51;;;;;;;1.92;1.40;;;34.90;99.90;;;;;;5064467;28;20188;-80
2022/07/25 10:30:25;;;;;;;1.25;1.15;;;34.90;99.90;;;;;;5070442;28;20203;-80
2022/07/25 10:32:59;;;;;;;2.22;1.45;;;35.00;99.90;;;;;;5067825;28;20906;-80
2022/07/25 10:35:26;;;;;;;1.25;0.98;;;35.40;99.90;;;;;;5068747;28;20188;-80
2022/07/25 10:37:54;;;;;;;1.42;1.15;;;35.70;99.90;;;;;;5069612;28;20272;-80
2022/07/25 10:40:36;;;;;;;1.75;1.20;;;35.70;99.90;;;;;;5068033;28;20197;-80
2022/07/25 10:43:13;;;;;;;1.95;1.73;;;35.80;99.90;;;;;;5071432;28;20176;-80
2022/07/25 10:45:51;;;;;;;1.40;1.30;;;35.80;99.90;;;;;;5063644;28;20181;-80
2022/07/25 10:48:28;;;;;;;1.88;1.42;;;35.70;99.90;;;;;;5073032;28;20193;-80
2022/07/25 10:51:05;;;;;;;2.78;1.83;;;35.90;99.90;;;;;;5070170;28;20286;-80
2022/07/25 10:53:37;;;;;;;1.55;1.45;;;35.90;99.90;;;;;;5085336;28;20640;-80
2022/07/25 10:56:13;;;;;;;0.82;0.82;;;36.00;99.90;;;;;;5071871;28;20931;-81
2022/07/25 10:58:53;;;;;;;2.28;1.65;;;36.30;99.90;;;;;;5072564;28;20245;-80
2022/07/25 11:01:28;;;;;;;1.10;1.08;;;36.10;99.90;;;;;;5072515;28;20197;-80
2022/07/25 11:03:58;;;;;;;1.70;1.60;;;36.20;99.90;;;;;;5074441;28;20886;-80
2022/07/25 11:06:38;;;;;;;2.15;2.03;;;36.20;99.90;;;;;;5071146;28;20263;-80
2022/07/25 11:09:12;;;;;;;1.60;1.50;;;36.20;99.90;;;;;;5063712;28;20183;-81
2022/07/25 11:11:47;;;;;;;1.90;1.75;;;36.30;99.90;;;;;;5064933;28;20718;-81
2022/07/25 11:14:19;;;;;;;4.43;2.92;;;36.40;99.90;;;;;;5072983;28;20188;-81
2022/07/25 11:16:46;;;;;;;1.65;1.42;;;36.50;99.90;;;;;;5068722;28;20189;-81
2022/07/25 11:19:23;;;;;;;1.17;1.08;;;36.40;99.90;;;;;;5070471;28;20301;-81
2022/07/25 11:21:51;;;;;;;1.08;0.98;;;36.10;99.90;;;;;;5090434;28;20287;-86
2022/07/25 11:24:17;;;;;;;1.75;1.25;;;36.00;99.90;;;;;;5072399;28;20184;-80
2022/07/25 11:26:51;;;;;;;5.45;1.55;;;35.80;99.90;;;;;;5068586;28;20622;-80
2022/07/25 11:29:22;;;;;;;1.42;1.33;;;35.70;99.90;;;;;;5070671;28;20172;-80
2022/07/25 11:31:52;;;;;;;1.42;1.20;;;36.00;99.90;;;;;;5074102;28;20279;-80
2022/07/25 11:34:22;;;;;;;2.10;0.93;;;35.50;99.90;;;;;;5077099;28;20173;-80
2022/07/25 11:36:47;;;;;;;0.80;0.80;;;35.30;99.90;;;;;;5073121;28;20723;-80
2022/07/25 11:39:16;;;;;;;1.80;1.67;;;35.30;99.90;;;;;;5076549;28;20213;-80
2022/07/25 11:41:41;;;;;;;1.13;1.02;;;35.30;99.90;;;;;;5071568;28;20177;-80
2022/07/25 11:44:07;;;;;;;1.45;1.13;;;35.40;99.90;;;;;;5071745;28;20296;-80
2022/07/25 11:46:42;;;;;;;1.13;1.02;;;35.40;99.90;;;;;;5069080;28;20546;-81
2022/07/25 11:49:08;;;;;;;1.40;1.27;;;35.70;99.90;;;;;;5072926;28;20237;-79
2022/07/25 11:51:37;;;;;;;0.90;0.90;;;36.00;99.90;;;;;;5069539;28;20190;-79
2022/07/25 11:54:08;;;;;;;1.35;1.25;;;36.50;99.90;;;;;;5070900;28;20200;-80
2022/07/25 11:56:38;;;;;;;1.35;1.15;;;36.60;99.90;;;;;;5072321;28;20203;-79
2022/07/25 11:59:04;;;;;;;1.48;1.20;;;36.20;99.90;;;;;;5067457;28;20202;-79
2022/07/25 12:01:38;;;;;;;2.05;0.98;;;36.00;99.90;;;;;;5067774;28;20173;-79
2022/07/25 12:04:10;;;;;;;1.60;1.30;;;35.90;99.90;;;;;;5076138;28;20181;-79
2022/07/25 12:06:36;;;;;;;1.05;1.00;;;35.60;99.90;;;;;;5072930;28;20177;-80
2022/07/25 12:09:13;;;;;;;3.13;1.45;;;35.70;99.90;;;;;;5068684;28;20185;-79
2022/07/25 12:11:39;;;;;;;2.08;1.50;;;35.80;99.90;;;;;;5070488;28;20177;-80
2022/07/25 12:14:05;;;;;;;1.38;1.10;;;35.80;99.90;;;;;;5071446;28;20672;-79
2022/07/25 12:16:32;;;;;;;1.60;1.25;;;35.90;99.90;;;;;;5072897;28;20204;-79
2022/07/25 12:18:58;;;;;;;1.48;1.05;;;35.90;99.90;;;;;;5070942;28;20228;-80
2022/07/25 12:21:23;;;;;;;0.82;0.82;;;35.50;99.90;;;;;;5071242;28;20216;-80
2022/07/25 12:23:49;;;;;;;0.90;0.77;;;35.30;99.90;;;;;;5072155;28;20276;-80
2022/07/25 12:26:14;;;;;;;1.20;0.82;;;35.30;99.90;;;;;;5072747;28;20169;-80
2022/07/25 12:28:40;;;;;;;1.17;1.08;;;35.10;99.90;;;;;;5068513;28;20544;-80
2022/07/25 12:31:06;;;;;;;1.38;1.27;;;34.80;99.90;;;;;;5060034;28;20293;-80
2022/07/25 12:33:31;;;;;;;1.92;1.23;;;34.60;99.90;;;;;;5071249;28;20177;-80
2022/07/25 12:35:58;;;;;;;1.38;1.02;;;34.50;99.90;;;;;;5069770;28;20184;-80
2022/07/25 12:38:24;;;;;;;1.98;1.25;;;34.30;99.90;;;;;;5072469;28;20211;-80
2022/07/25 12:40:50;;;;;;;2.15;0.63;;;34.30;99.90;;;;;;5071750;28;20205;-80
2022/07/25 12:43:16;;;;;;;0.77;0.77;;;34.10;99.90;;;;;;5073119;28;20173;-79
2022/07/25 12:45:42;;;;;;;3.05;1.13;;;33.90;99.90;;;;;;5070423;28;20495;-80
2022/07/25 12:48:08;;;;;;;1.75;0.88;;;33.70;99.90;;;;;;5065217;28;20186;-80
2022/07/25 12:50:34;;;;;;;1.20;1.10;;;33.50;99.90;;;;;;5068128;28;20201;-79